Time;durP1;ratioP1;P1;durP2;ratioP2;P2;SDS_P1;SDS_P2;PMS_P1;PMS_P2;Temp;Humidity;BMP_temperature;BMP_pressure;BME280_temperature;BME280_humidity;BME280_pressure;Samples;Min_cycle;Max_cycle;Signal;HPM_P1;HPM_P2
2024/01/01 00:01:44;;;;;;;38.05;21.70;;;;;;;;;;4927098;29;20475;-83
2024/01/01 00:04:09;;;;;;;32.70;18.25;;;;;;;;;;4911340;29;20047;-83
2024/01/01 00:06:35;;;;;;;36.42;20.05;;;;;;;;;;4924290;29;20075;-85
2024/01/01 00:09:00;;;;;;;30.35;16.70;;;;;;;;;;4929260;29;20039;-82
2024/01/01 00:11:26;;;;;;;24.73;14.02;;;;;;;;;;4926237;29;20437;-84
2024/01/01 00:13:51;;;;;;;22.20;10.73;;;;;;;;;;4924913;29;20034;-83
2024/01/01 00:16:17;;;;;;;11.05;6.55;;;;;;;;;;4927207;29;20024;-87
2024/01/01 00:18:42;;;;;;;17.52;8.07;;;;;;;;;;4924270;29;20047;-83
2024/01/01 00:21:08;;;;;;;19.15;8.43;;;;;;;;;;4925500;29;20042;-83
2024/01/01 00:23:34;;;;;;;10.50;5.80;;;;;;;;;;4927942;29;20513;-83
2024/01/01 00:25:59;;;;;;;9.80;5.65;;;;;;;;;;4927648;29;20032;-86
2024/01/01 00:28:25;;;;;;;10.63;5.28;;;;;;;;;;4925324;29;20043;-82
2024/01/01 00:30:50;;;;;;;9.07;4.38;;;;;;;;;;4925058;29;20064;-82
2024/01/01 00:33:16;;;;;;;7.75;4.65;;;;;;;;;;4925344;29;20040;-83
2024/01/01 00:35:42;;;;;;;9.43;5.18;;;;;;;;;;4925514;29;20028;-83
2024/01/01 00:38:07;;;;;;;11.65;5.30;;;;;;;;;;4918328;29;20056;-82
2024/01/01 00:40:33;;;;;;;10.00;5.90;;;;;;;;;;4931343;29;20662;-84
2024/01/01 00:42:58;;;;;;;10.98;5.68;;;;;;;;;;4929434;29;20035;-82
2024/01/01 00:45:24;;;;;;;10.55;6.07;;;;;;;;;;4938089;29;20086;-86
2024/01/01 00:47:49;;;;;;;12.18;6.32;;;;;;;;;;4909173;29;20043;-82
2024/01/01 00:50:15;;;;;;;10.07;5.55;;;;;;;;;;4931027;29;20038;-83
2024/01/01 00:52:40;;;;;;;9.18;5.03;;;;;;;;;;4925317;29;20407;-84
2024/01/01 00:55:06;;;;;;;7.25;3.92;;;;;;;;;;4924512;29;20036;-82
2024/01/01 00:57:32;;;;;;;5.93;2.78;;;;;;;;;;4926541;29;20047;-82
2024/01/01 00:59:58;;;;;;;5.05;2.72;;;;;;;;;;4923389;29;20028;-83
2024/01/01 01:02:23;;;;;;;5.00;2.30;;;;;;;;;;4923535;29;20478;-83
2024/01/01 01:04:49;;;;;;;5.90;3.13;;;;;;;;;;4923884;29;20035;-86
2024/01/01 01:07:14;;;;;;;6.05;2.95;;;;;;;;;;4929261;29;20064;-83
2024/01/01 01:09:40;;;;;;;7.07;3.55;;;;;;;;;;4923408;29;20406;-85
2024/01/01 01:12:05;;;;;;;4.93;2.80;;;;;;;;;;4931517;29;20032;-84
2024/01/01 01:14:32;;;;;;;3.35;2.10;;;;;;;;;;4908354;29;20127;-83
2024/01/01 01:16:57;;;;;;;3.92;2.25;;;;;;;;;;4921293;29;20183;-85
2024/01/01 01:19:22;;;;;;;3.63;1.90;;;;;;;;;;4927417;29;20109;-82
2024/01/01 01:21:48;;;;;;;3.08;1.77;;;;;;;;;;4924813;29;20040;-84
2024/01/01 01:24:15;;;;;;;3.28;1.70;;;;;;;;;;4922842;29;20039;-84
2024/01/01 01:26:44;;;;;;;3.22;1.85;;;;;;;;;;4924552;29;20028;-84
2024/01/01 01:29:11;;;;;;;2.90;1.77;;;;;;;;;;4925045;29;20030;-83
2024/01/01 01:31:37;;;;;;;3.67;2.08;;;;;;;;;;4922007;29;20043;-89
2024/01/01 01:34:03;;;;;;;3.85;1.90;;;;;;;;;;4937298;29;20043;-83
2024/01/01 01:36:28;;;;;;;2.47;1.60;;;;;;;;;;4926628;29;20028;-83
2024/01/01 01:38:54;;;;;;;4.80;1.70;;;;;;;;;;4928539;29;20039;-86
2024/01/01 01:41:20;;;;;;;2.75;1.60;;;;;;;;;;4933448;29;20486;-83
2024/01/01 01:43:45;;;;;;;4.65;2.20;;;;;;;;;;4932526;29;20043;-83
2024/01/01 01:46:13;;;;;;;3.75;1.83;;;;;;;;;;4929198;29;20389;-83
2024/01/01 01:48:39;;;;;;;4.18;1.98;;;;;;;;;;4927227;29;20067;-83
2024/01/01 01:51:05;;;;;;;3.13;1.80;;;;;;;;;;4927432;29;20051;-83
2024/01/01 01:53:31;;;;;;;3.75;1.75;;;;;;;;;;4929733;29;20035;-83
2024/01/01 01:55:59;;;;;;;4.70;2.20;;;;;;;;;;4930363;29;20031;-85
2024/01/01 01:58:25;;;;;;;5.38;3.00;;;;;;;;;;4930159;29;20458;-86
2024/01/01 02:00:51;;;;;;;4.85;2.83;;;;;;;;;;4926709;29;20048;-83
2024/01/01 02:03:17;;;;;;;6.28;3.13;;;;;;;;;;4927774;29;20031;-83
2024/01/01 02:05:43;;;;;;;5.13;3.17;;;;;;;;;;4933508;29;20395;-84
2024/01/01 02:08:10;;;;;;;7.55;3.50;;;;;;;;;;4925653;29;20383;-83
2024/01/01 02:10:35;;;;;;;6.85;3.42;;;;;;;;;;4928050;29;20166;-83
2024/01/01 02:13:02;;;;;;;5.20;2.97;;;;;;;;;;4927072;29;20036;-83
2024/01/01 02:15:28;;;;;;;5.20;2.88;;;;;;;;;;4935005;29;20028;-84
2024/01/01 02:17:54;;;;;;;4.15;2.58;;;;;;;;;;4909867;29;20040;-83
2024/01/01 02:20:20;;;;;;;4.75;2.50;;;;;;;;;;4932993;29;20050;-84
2024/01/01 02:22:45;;;;;;;5.43;2.78;;;;;;;;;;4932701;29;20032;-86
2024/01/01 02:25:12;;;;;;;4.43;2.42;;;;;;;;;;4932285;29;20070;-83
2024/01/01 02:27:39;;;;;;;5.13;2.53;;;;;;;;;;4930827;29;20092;-90
2024/01/01 02:30:10;;;;;;;4.32;2.53;;;;;;;;;;4928765;29;20036;-88
2024/01/01 02:32:38;;;;;;;5.40;2.78;;;;;;;;;;4929243;29;20087;-83
2024/01/01 02:35:08;;;;;;;5.72;2.42;;;;;;;;;;4924425;29;20028;-84
2024/01/01 02:37:34;;;;;;;5.60;2.70;;;;;;;;;;4924591;29;20068;-83
2024/01/01 02:40:03;;;;;;;6.05;2.60;;;;;;;;;;4930074;29;20068;-84
2024/01/01 02:42:29;;;;;;;5.18;3.00;;;;;;;;;;4928204;29;20023;-83
2024/01/01 02:44:55;;;;;;;5.50;3.13;;;;;;;;;;4927115;29;20035;-83
2024/01/01 02:47:21;;;;;;;4.93;2.72;;;;;;;;;;4925490;29;20055;-83
2024/01/01 02:49:46;;;;;;;4.53;2.60;;;;;;;;;;4926220;29;20482;-85
2024/01/01 02:52:12;;;;;;;4.97;2.85;;;;;;;;;;4925968;29;20046;-83
2024/01/01 02:54:37;;;;;;;5.90;3.10;;;;;;;;;;4925525;29;20031;-83
2024/01/01 02:57:03;;;;;;;5.60;3.10;;;;;;;;;;4929651;29;20032;-83
2024/01/01 02:59:28;;;;;;;4.57;3.00;;;;;;;;;;4930251;29;20118;-85
2024/01/01 03:01:54;;;;;;;4.68;3.03;;;;;;;;;;4928538;29;20044;-84
2024/01/01 03:04:19;;;;;;;4.63;2.80;;;;;;;;;;4930935;29;20028;-82
2024/01/01 03:06:45;;;;;;;5.63;3.20;;;;;;;;;;4929932;29;20454;-84
2024/01/01 03:09:10;;;;;;;5.47;3.28;;;;;;;;;;4923508;29;20391;-84
2024/01/01 03:11:36;;;;;;;6.30;3.08;;;;;;;;;;4927361;29;20147;-83
2024/01/01 03:14:02;;;;;;;5.38;2.92;;;;;;;;;;4930465;29;20066;-82
2024/01/01 03:16:27;;;;;;;6.13;3.30;;;;;;;;;;4912366;29;20436;-84
2024/01/01 03:18:53;;;;;;;6.22;3.47;;;;;;;;;;4927260;29;20055;-86
2024/01/01 03:21:18;;;;;;;5.95;3.05;;;;;;;;;;4906464;29;20043;-81
2024/01/01 03:23:44;;;;;;;5.32;3.13;;;;;;;;;;4927295;29;20040;-83
2024/01/01 03:26:09;;;;;;;6.38;3.50;;;;;;;;;;4925271;29;20116;-85
2024/01/01 03:28:34;;;;;;;5.15;3.05;;;;;;;;;;4931762;29;20046;-83
2024/01/01 03:31:00;;;;;;;6.00;3.03;;;;;;;;;;4925866;29;20063;-83
2024/01/01 03:33:32;;;;;;;5.20;2.78;;;;;;;;;;4925590;29;20032;-85
2024/01/01 03:35:58;;;;;;;5.95;3.10;;;;;;;;;;4927686;29;20039;-83
2024/01/01 03:38:23;;;;;;;4.93;3.00;;;;;;;;;;4926745;29;20039;-86
2024/01/01 03:40:49;;;;;;;4.43;2.75;;;;;;;;;;4923329;29;20032;-83
2024/01/01 03:43:15;;;;;;;4.72;2.53;;;;;;;;;;4933689;29;20035;-83
2024/01/01 03:45:41;;;;;;;4.53;2.55;;;;;;;;;;4922047;29;20115;-84
2024/01/01 03:48:08;;;;;;;4.63;2.75;;;;;;;;;;4924041;29;20503;-83
2024/01/01 03:50:33;;;;;;;5.82;2.53;;;;;;;;;;4928098;29;20060;-83
2024/01/01 03:52:59;;;;;;;4.90;2.67;;;;;;;;;;4924983;29;20035;-84
2024/01/01 03:55:24;;;;;;;4.78;2.72;;;;;;;;;;4928749;29;20032;-86
2024/01/01 03:57:50;;;;;;;4.82;2.60;;;;;;;;;;4925881;29;20039;-84
2024/01/01 04:00:15;;;;;;;4.72;2.90;;;;;;;;;;4929312;29;20207;-85
2024/01/01 04:02:41;;;;;;;4.90;2.72;;;;;;;;;;4923609;29;20047;-84
2024/01/01 04:05:08;;;;;;;6.10;3.13;;;;;;;;;;4928883;29;20451;-84
2024/01/01 04:07:34;;;;;;;4.35;3.00;;;;;;;;;;4930083;29;20119;-84
2024/01/01 04:10:02;;;;;;;6.07;3.20;;;;;;;;;;4942073;29;20032;-83
2024/01/01 04:12:27;;;;;;;5.70;3.05;;;;;;;;;;4926408;29;20028;-83
2024/01/01 04:14:53;;;;;;;5.95;2.90;;;;;;;;;;4926164;29;20050;-84
2024/01/01 04:17:18;;;;;;;4.85;2.92;;;;;;;;;;4928175;29;20131;-82
2024/01/01 04:19:47;;;;;;;5.97;2.97;;;;;;;;;;4927296;29;20090;-84
2024/01/01 04:22:13;;;;;;;6.10;2.83;;;;;;;;;;4927632;29;20379;-84
2024/01/01 04:24:39;;;;;;;5.50;3.05;;;;;;;;;;4925480;29;20040;-88
2024/01/01 04:27:05;;;;;;;5.80;3.33;;;;;;;;;;4924350;29;20079;-87
2024/01/01 04:29:30;;;;;;;5.25;3.00;;;;;;;;;;4922513;29;20032;-87
2024/01/01 04:31:55;;;;;;;7.82;3.40;;;;;;;;;;4927173;29;20490;-83
2024/01/01 04:34:21;;;;;;;6.97;3.40;;;;;;;;;;4925172;29;20024;-87
2024/01/01 04:36:46;;;;;;;7.35;3.45;;;;;;;;;;4932983;29;20065;-83
2024/01/01 04:39:12;;;;;;;7.45;3.67;;;;;;;;;;4927998;29;20039;-84
2024/01/01 04:41:37;;;;;;;7.47;3.97;;;;;;;;;;4932678;29;20034;-87
2024/01/01 04:44:03;;;;;;;7.82;3.90;;;;;;;;;;4925555;29;20474;-83
2024/01/01 04:46:28;;;;;;;9.98;5.85;;;;;;;;;;4931971;29;20052;-84
2024/01/01 04:48:54;;;;;;;10.20;4.75;;;;;;;;;;4934641;29;20038;-84
2024/01/01 04:51:19;;;;;;;7.32;4.45;;;;;;;;;;4933020;29;20032;-83
2024/01/01 04:53:45;;;;;;;7.53;4.07;;;;;;;;;;4929183;29;20035;-85
2024/01/01 04:56:10;;;;;;;6.97;3.45;;;;;;;;;;4930880;29;20020;-83
2024/01/01 04:58:36;;;;;;;5.90;3.53;;;;;;;;;;4927244;29;20683;-86
2024/01/01 05:01:01;;;;;;;7.95;3.90;;;;;;;;;;4923314;29;20035;-83
2024/01/01 05:03:27;;;;;;;5.30;3.67;;;;;;;;;;4928724;29;20035;-82
2024/01/01 05:05:52;;;;;;;6.47;3.50;;;;;;;;;;4928064;29;20032;-85
2024/01/01 05:08:18;;;;;;;5.95;3.15;;;;;;;;;;4921599;29;20115;-83
2024/01/01 05:10:43;;;;;;;5.07;3.33;;;;;;;;;;4928026;28;20036;-83
2024/01/01 05:13:09;;;;;;;5.35;2.35;;;;;;;;;;4928196;29;20043;-85
2024/01/01 05:15:34;;;;;;;4.30;2.53;;;;;;;;;;4930944;29;20028;-86
2024/01/01 05:18:00;;;;;;;4.10;2.60;;;;;;;;;;4928260;29;20039;-83
2024/01/01 05:20:25;;;;;;;5.13;2.85;;;;;;;;;;4930155;29;20395;-83
2024/01/01 05:22:51;;;;;;;3.67;2.47;;;;;;;;;;4929249;29;20115;-84
2024/01/01 05:25:16;;;;;;;5.80;2.97;;;;;;;;;;4932556;29;20036;-83
2024/01/01 05:27:42;;;;;;;4.82;2.50;;;;;;;;;;4925161;29;20070;-83
2024/01/01 05:30:08;;;;;;;4.75;2.70;;;;;;;;;;4929870;29;20032;-83
2024/01/01 05:32:34;;;;;;;3.67;2.25;;;;;;;;;;4930993;29;20036;-82
2024/01/01 05:35:00;;;;;;;4.93;2.92;;;;;;;;;;4927621;29;20100;-83
2024/01/01 05:37:25;;;;;;;5.57;2.83;;;;;;;;;;4931226;29;20040;-85
2024/01/01 05:39:51;;;;;;;6.68;3.00;;;;;;;;;;4926901;29;20036;-83
2024/01/01 05:42:18;;;;;;;4.97;2.70;;;;;;;;;;4929195;29;20683;-82
2024/01/01 05:44:44;;;;;;;5.15;3.20;;;;;;;;;;4927858;29;20066;-87
2024/01/01 05:47:10;;;;;;;5.28;3.33;;;;;;;;;;4924548;29;20106;-86
2024/01/01 05:49:35;;;;;;;6.82;3.22;;;;;;;;;;4933736;29;20040;-83
2024/01/01 05:52:02;;;;;;;5.22;2.90;;;;;;;;;;4930671;29;20068;-82
2024/01/01 05:54:28;;;;;;;6.40;3.05;;;;;;;;;;4931529;29;20039;-84
2024/01/01 05:56:53;;;;;;;6.38;2.95;;;;;;;;;;4931754;29;20043;-84
2024/01/01 05:59:19;;;;;;;5.00;2.80;;;;;;;;;;4927744;29;20047;-83
2024/01/01 06:01:45;;;;;;;4.30;2.30;;;;;;;;;;4926084;29;20044;-84
2024/01/01 06:04:10;;;;;;;5.45;2.58;;;;;;;;;;4929205;29;20078;-86
2024/01/01 06:06:36;;;;;;;2.78;1.77;;;;;;;;;;4932993;29;20048;-83
2024/01/01 06:09:01;;;;;;;4.65;2.38;;;;;;;;;;4930687;29;20502;-83
2024/01/01 06:11:27;;;;;;;4.60;2.50;;;;;;;;;;4930382;29;20040;-85
2024/01/01 06:13:52;;;;;;;4.20;2.40;;;;;;;;;;4928759;29;20035;-87
2024/01/01 06:16:18;;;;;;;5.03;2.20;;;;;;;;;;4928483;29;20039;-82
2024/01/01 06:18:44;;;;;;;4.90;3.00;;;;;;;;;;4934296;29;20565;-84
2024/01/01 06:21:10;;;;;;;4.35;2.53;;;;;;;;;;4931351;29;20102;-84
2024/01/01 06:23:36;;;;;;;5.80;2.90;;;;;;;;;;4928324;29;20451;-82
2024/01/01 06:26:02;;;;;;;5.82;3.40;;;;;;;;;;4929811;29;20023;-83
2024/01/01 06:28:28;;;;;;;5.82;2.97;;;;;;;;;;4928727;29;20034;-85
2024/01/01 06:30:53;;;;;;;4.70;2.47;;;;;;;;;;4930045;29;20126;-83
2024/01/01 06:33:19;;;;;;;4.55;2.50;;;;;;;;;;4928505;29;20096;-88
2024/01/01 06:35:44;;;;;;;4.97;2.72;;;;;;;;;;4926475;29;20044;-84
2024/01/01 06:38:10;;;;;;;5.32;2.88;;;;;;;;;;4926122;29;20028;-84
2024/01/01 06:40:36;;;;;;;5.72;3.15;;;;;;;;;;4929314;29;20106;-84
2024/01/01 06:43:01;;;;;;;5.82;3.03;;;;;;;;;;4930059;29;20516;-82
2024/01/01 06:45:26;;;;;;;8.23;3.65;;;;;;;;;;4927128;29;20107;-83
2024/01/01 06:47:52;;;;;;;5.40;3.40;;;;;;;;;;4925532;29;20063;-84
2024/01/01 06:50:17;;;;;;;5.90;2.88;;;;;;;;;;4922341;29;20035;-85
2024/01/01 06:52:45;;;;;;;5.75;3.15;;;;;;;;;;4930229;29;20048;-84
2024/01/01 06:55:10;;;;;;;7.03;3.95;;;;;;;;;;4930349;29;20027;-84
2024/01/01 06:57:36;;;;;;;6.70;3.70;;;;;;;;;;4927168;29;20518;-88
2024/01/01 07:00:02;;;;;;;5.97;3.55;;;;;;;;;;4925399;29;20074;-89
2024/01/01 07:02:28;;;;;;;9.48;3.80;;;;;;;;;;4925982;29;20555;-83
2024/01/01 07:04:53;;;;;;;7.05;3.40;;;;;;;;;;4928307;29;20657;-85
2024/01/01 07:07:19;;;;;;;7.90;3.40;;;;;;;;;;4929341;29;20040;-85
2024/01/01 07:09:44;;;;;;;6.60;3.38;;;;;;;;;;4924496;29;20071;-86
2024/01/01 07:12:24;;;;;;;7.78;4.07;;;;;;;;;;4928720;29;20039;-85
2024/01/01 07:14:50;;;;;;;8.00;4.13;;;;;;;;;;4925102;29;20051;-85
2024/01/01 07:17:16;;;;;;;6.35;3.38;;;;;;;;;;4927160;29;20119;-84
2024/01/01 07:19:42;;;;;;;8.63;3.90;;;;;;;;;;4933566;29;20514;-84
2024/01/01 07:22:09;;;;;;;7.00;3.78;;;;;;;;;;4927653;29;20118;-83
2024/01/01 07:24:34;;;;;;;6.95;3.67;;;;;;;;;;4925161;29;20036;-83
2024/01/01 07:27:00;;;;;;;7.13;3.83;;;;;;;;;;4926756;29;20103;-84
2024/01/01 07:29:27;;;;;;;7.35;3.75;;;;;;;;;;4926765;29;20033;-86
2024/01/01 07:31:53;;;;;;;9.23;3.88;;;;;;;;;;4927658;29;20059;-84
2024/01/01 07:34:19;;;;;;;7.15;3.80;;;;;;;;;;4929044;29;20064;-88
2024/01/01 07:36:46;;;;;;;9.43;4.47;;;;;;;;;;4926800;29;20486;-84
2024/01/01 07:39:12;;;;;;;8.35;4.35;;;;;;;;;;4927381;29;20071;-84
2024/01/01 07:41:38;;;;;;;8.05;4.72;;;;;;;;;;4928250;29;20042;-85
2024/01/01 07:44:04;;;;;;;10.55;4.70;;;;;;;;;;4925638;29;20028;-86
2024/01/01 07:46:29;;;;;;;6.10;3.88;;;;;;;;;;4932830;29;20035;-86
2024/01/01 07:48:55;;;;;;;8.68;4.68;;;;;;;;;;4926869;29;20159;-85
2024/01/01 07:51:21;;;;;;;6.63;4.03;;;;;;;;;;4926747;29;20036;-85
2024/01/01 07:53:48;;;;;;;8.43;3.45;;;;;;;;;;4925540;29;20082;-83
2024/01/01 07:56:14;;;;;;;4.75;3.05;;;;;;;;;;4925061;29;20047;-85
2024/01/01 07:58:39;;;;;;;6.32;3.42;;;;;;;;;;4927994;29;20410;-83
2024/01/01 08:01:06;;;;;;;6.75;3.10;;;;;;;;;;4922914;29;20167;-83
2024/01/01 08:03:32;;;;;;;7.32;3.72;;;;;;;;;;4928556;29;20043;-82
2024/01/01 08:05:57;;;;;;;6.97;4.00;;;;;;;;;;4932095;29;20042;-84
2024/01/01 08:08:23;;;;;;;8.10;4.10;;;;;;;;;;4931331;29;20046;-83
2024/01/01 08:10:49;;;;;;;8.02;4.20;;;;;;;;;;4928852;29;20043;-85
2024/01/01 08:13:14;;;;;;;6.72;4.03;;;;;;;;;;4922877;29;20430;-84
2024/01/01 08:15:40;;;;;;;7.68;4.32;;;;;;;;;;4924158;29;20090;-84
2024/01/01 08:18:06;;;;;;;5.05;3.20;;;;;;;;;;4922502;29;20060;-83
2024/01/01 08:20:31;;;;;;;5.32;3.20;;;;;;;;;;4926307;29;20063;-85
2024/01/01 08:22:57;;;;;;;5.65;3.28;;;;;;;;;;4923988;29;20574;-85
2024/01/01 08:25:22;;;;;;;7.47;3.38;;;;;;;;;;4925077;29;20096;-86
2024/01/01 08:27:49;;;;;;;5.75;3.00;;;;;;;;;;4924903;29;20049;-83
2024/01/01 08:30:14;;;;;;;6.28;3.10;;;;;;;;;;4923786;29;20079;-83
2024/01/01 08:32:40;;;;;;;5.13;3.10;;;;;;;;;;4924704;29;20554;-85
2024/01/01 08:35:06;;;;;;;5.40;3.20;;;;;;;;;;4932130;29;20036;-85
2024/01/01 08:37:32;;;;;;;5.90;3.20;;;;;;;;;;4926673;29;20043;-85
2024/01/01 08:39:57;;;;;;;7.20;3.28;;;;;;;;;;4926388;29;20119;-85
2024/01/01 08:42:23;;;;;;;6.15;3.47;;;;;;;;;;4928408;29;20036;-84
2024/01/01 08:44:48;;;;;;;5.90;3.38;;;;;;;;;;4928583;29;20063;-81
2024/01/01 08:47:15;;;;;;;5.53;3.30;;;;;;;;;;4930997;29;20410;-83
2024/01/01 08:49:41;;;;;;;5.03;2.95;;;;;;;;;;4930284;29;20032;-89
2024/01/01 08:52:07;;;;;;;6.40;3.20;;;;;;;;;;4934717;29;20050;-83
2024/01/01 08:54:32;;;;;;;6.15;3.60;;;;;;;;;;4931590;29;20039;-84
2024/01/01 08:56:58;;;;;;;5.32;3.10;;;;;;;;;;4933125;29;20039;-84
2024/01/01 08:59:23;;;;;;;5.97;3.50;;;;;;;;;;4930705;29;20043;-83
2024/01/01 09:01:49;;;;;;;6.30;3.00;;;;;;;;;;4933035;29;20087;-84
2024/01/01 09:04:14;;;;;;;5.63;2.97;;;;;;;;;;4928392;29;20023;-83
2024/01/01 09:06:40;;;;;;;6.00;3.17;;;;;;;;;;4926407;29;20032;-84
2024/01/01 09:09:08;;;;;;;4.53;2.90;;;;;;;;;;4929954;29;20075;-86
2024/01/01 09:11:33;;;;;;;5.20;2.72;;;;;;;;;;4927650;29;20123;-83
2024/01/01 09:14:00;;;;;;;6.05;3.20;;;;;;;;;;4934012;29;20442;-84
2024/01/01 09:16:29;;;;;;;5.38;3.33;;;;;;;;;;4927529;29;20049;-83
2024/01/01 09:18:56;;;;;;;5.97;3.50;;;;;;;;;;4927318;29;20032;-83
2024/01/01 09:21:24;;;;;;;6.68;3.83;;;;;;;;;;4920866;29;20475;-85
2024/01/01 09:23:50;;;;;;;6.45;3.90;;;;;;;;;;4925542;29;20055;-86
2024/01/01 09:26:15;;;;;;;7.50;4.25;;;;;;;;;;4927832;29;20071;-84
2024/01/01 09:28:41;;;;;;;8.52;4.10;;;;;;;;;;4925851;29;20058;-86
2024/01/01 09:31:06;;;;;;;6.80;3.58;;;;;;;;;;4923676;29;20463;-85
2024/01/01 09:33:33;;;;;;;5.90;3.25;;;;;;;;;;4926856;29;20055;-84
2024/01/01 09:35:58;;;;;;;6.20;3.50;;;;;;;;;;4927855;29;20071;-84
2024/01/01 09:38:24;;;;;;;5.30;2.80;;;;;;;;;;4928719;29;20040;-84
2024/01/01 09:40:49;;;;;;;6.65;3.03;;;;;;;;;;4923350;29;20036;-86
2024/01/01 09:43:17;;;;;;;6.00;3.75;;;;;;;;;;4927007;29;20059;-86
2024/01/01 09:45:43;;;;;;;5.47;3.20;;;;;;;;;;4925297;29;20144;-84
2024/01/01 09:48:09;;;;;;;6.38;3.50;;;;;;;;;;4927925;29;20044;-85
2024/01/01 09:50:34;;;;;;;5.78;3.03;;;;;;;;;;4922367;29;20038;-85
2024/01/01 09:53:00;;;;;;;6.30;3.47;;;;;;;;;;4928197;29;20034;-85
2024/01/01 09:55:26;;;;;;;6.70;3.42;;;;;;;;;;4930535;29;20035;-85
2024/01/01 09:57:51;;;;;;;9.88;4.50;;;;;;;;;;4930795;29;20095;-84
2024/01/01 10:00:21;;;;;;;9.00;3.75;;;;;;;;;;4929061;29;20411;-85
2024/01/01 10:02:47;;;;;;;11.27;4.40;;;;;;;;;;4928273;29;20040;-83
2024/01/01 10:05:14;;;;;;;15.90;5.60;;;;;;;;;;4926601;29;20437;-83
2024/01/01 10:07:40;;;;;;;5.50;2.72;;;;;;;;;;4928254;29;20065;-83
2024/01/01 10:10:06;;;;;;;4.70;2.33;;;;;;;;;;4923106;29;20050;-84
2024/01/01 10:12:35;;;;;;;4.80;2.60;;;;;;;;;;4931625;29;20036;-84
2024/01/01 10:15:00;;;;;;;5.18;2.55;;;;;;;;;;4926559;29;20095;-83
2024/01/01 10:17:26;;;;;;;4.93;2.30;;;;;;;;;;4927946;29;20040;-84
2024/01/01 10:19:58;;;;;;;4.55;2.60;;;;;;;;;;4926753;29;20071;-84
2024/01/01 10:22:29;;;;;;;4.35;2.55;;;;;;;;;;4925373;29;20036;-84
2024/01/01 10:25:13;;;;;;;4.35;2.38;;;;;;;;;;4924268;29;20490;-83
2024/01/01 10:27:38;;;;;;;5.82;2.90;;;;;;;;;;4925910;29;20039;-84
2024/01/01 10:30:05;;;;;;;5.03;2.60;;;;;;;;;;4929478;29;20106;-83
2024/01/01 10:32:32;;;;;;;4.28;2.40;;;;;;;;;;4929864;29;20032;-83
2024/01/01 10:35:00;;;;;;;5.70;2.40;;;;;;;;;;4930343;29;20044;-83
2024/01/01 10:37:26;;;;;;;4.13;2.53;;;;;;;;;;4924954;29;20107;-83
2024/01/01 10:39:53;;;;;;;6.20;3.33;;;;;;;;;;4913246;29;20060;-83
2024/01/01 10:42:19;;;;;;;4.88;2.90;;;;;;;;;;4928501;29;20042;-83
2024/01/01 10:44:45;;;;;;;6.43;3.17;;;;;;;;;;4926399;29;20402;-84
2024/01/01 10:47:10;;;;;;;6.22;3.45;;;;;;;;;;4926604;29;20035;-83
2024/01/01 10:49:42;;;;;;;4.70;2.92;;;;;;;;;;4926347;29;20040;-82
2024/01/01 10:52:16;;;;;;;6.00;3.50;;;;;;;;;;4927827;29;20089;-83
2024/01/01 10:54:45;;;;;;;7.07;3.83;;;;;;;;;;4925254;29;20050;-84
2024/01/01 10:57:15;;;;;;;8.00;3.25;;;;;;;;;;4925176;29;20059;-82
2024/01/01 10:59:58;;;;;;;6.20;3.28;;;;;;;;;;4923029;29;20585;-83
2024/01/01 11:02:24;;;;;;;6.88;3.25;;;;;;;;;;4923036;29;20171;-83
2024/01/01 11:05:10;;;;;;;4.25;2.80;;;;;;;;;;4932100;29;20027;-84
2024/01/01 11:07:51;;;;;;;6.22;2.92;;;;;;;;;;4939084;29;20612;-84
2024/01/01 11:10:41;;;;;;;6.15;3.20;;;;;;;;;;4919182;29;20040;-82
2024/01/01 11:13:29;;;;;;;5.72;2.95;;;;;;;;;;4932727;29;20066;-83
2024/01/01 11:15:59;;;;;;;4.93;2.90;;;;;;;;;;4926117;29;20044;-83
2024/01/01 11:18:33;;;;;;;6.30;2.75;;;;;;;;;;4931126;29;20036;-82
2024/01/01 11:21:01;;;;;;;3.78;2.50;;;;;;;;;;4921890;29;20127;-86
2024/01/01 11:23:45;;;;;;;5.53;2.90;;;;;;;;;;4927489;29;20436;-81
2024/01/01 11:26:23;;;;;;;4.63;2.25;;;;;;;;;;4929483;29;20482;-80
2024/01/01 11:28:53;;;;;;;5.53;2.80;;;;;;;;;;4924100;29;20039;-82
2024/01/01 11:31:18;;;;;;;5.78;3.70;;;;;;;;;;4925056;29;20554;-82
2024/01/01 11:33:44;;;;;;;4.32;2.60;;;;;;;;;;4930023;29;20035;-81
2024/01/01 11:36:10;;;;;;;4.57;2.67;;;;;;;;;;4926386;29;20093;-82
2024/01/01 11:38:36;;;;;;;4.38;2.50;;;;;;;;;;4929595;29;20046;-82
2024/01/01 11:41:01;;;;;;;4.68;2.50;;;;;;;;;;4925501;29;20028;-82
2024/01/01 11:43:27;;;;;;;5.63;2.60;;;;;;;;;;4921833;29;20062;-82
2024/01/01 11:45:56;;;;;;;6.00;2.95;;;;;;;;;;4926321;29;20061;-83
2024/01/01 11:48:22;;;;;;;6.00;2.85;;;;;;;;;;4924217;29;20028;-83
2024/01/01 11:50:49;;;;;;;5.20;2.90;;;;;;;;;;4926504;29;20071;-82
2024/01/01 11:53:20;;;;;;;8.30;3.50;;;;;;;;;;4928076;29;20056;-83
2024/01/01 11:55:46;;;;;;;7.40;3.28;;;;;;;;;;4926511;29;20049;-83
2024/01/01 11:58:13;;;;;;;5.57;2.70;;;;;;;;;;4922218;29;20130;-83
2024/01/01 12:00:39;;;;;;;5.65;3.30;;;;;;;;;;4926785;29;20039;-84
2024/01/01 12:03:05;;;;;;;4.70;2.80;;;;;;;;;;4926874;29;20042;-83
2024/01/01 12:05:32;;;;;;;4.88;2.70;;;;;;;;;;4925986;29;20032;-83
2024/01/01 12:07:59;;;;;;;6.20;3.22;;;;;;;;;;4925600;29;20055;-83
2024/01/01 12:10:26;;;;;;;6.22;3.38;;;;;;;;;;4926461;29;20418;-83
2024/01/01 12:13:03;;;;;;;6.32;3.30;;;;;;;;;;4923847;29;20071;-84
2024/01/01 12:15:31;;;;;;;6.75;3.40;;;;;;;;;;4925052;29;20568;-84
2024/01/01 12:17:57;;;;;;;7.15;2.80;;;;;;;;;;4926118;29;20797;-84
2024/01/01 12:20:23;;;;;;;7.90;4.20;;;;;;;;;;4922694;29;20119;-83
2024/01/01 12:22:50;;;;;;;8.43;4.43;;;;;;;;;;4924161;29;20119;-83
2024/01/01 12:25:16;;;;;;;6.43;3.92;;;;;;;;;;4925437;29;20035;-84
2024/01/01 12:28:03;;;;;;;6.20;3.25;;;;;;;;;;4940395;28;20044;-84
2024/01/01 12:30:30;;;;;;;6.45;3.50;;;;;;;;;;4924465;29;20122;-83
2024/01/01 12:32:56;;;;;;;5.72;3.28;;;;;;;;;;4925261;29;20034;-84
2024/01/01 12:35:21;;;;;;;7.43;4.40;;;;;;;;;;4921960;29;20032;-83
2024/01/01 12:37:47;;;;;;;6.95;3.67;;;;;;;;;;4922771;29;20055;-84
2024/01/01 12:40:14;;;;;;;5.75;3.20;;;;;;;;;;4924120;29;20039;-83
2024/01/01 12:42:40;;;;;;;5.05;2.80;;;;;;;;;;4926042;29;20076;-84
2024/01/01 12:45:06;;;;;;;5.82;3.00;;;;;;;;;;4922404;29;20067;-84
2024/01/01 12:47:31;;;;;;;5.35;2.80;;;;;;;;;;4926220;29;20039;-84
2024/01/01 12:49:57;;;;;;;6.53;2.63;;;;;;;;;;4907204;29;20048;-84
2024/01/01 12:52:22;;;;;;;7.57;3.40;;;;;;;;;;4924835;29;20631;-84
2024/01/01 12:54:48;;;;;;;4.93;3.00;;;;;;;;;;4924181;29;20079;-84
2024/01/01 12:57:13;;;;;;;5.57;2.85;;;;;;;;;;4925191;29;20036;-84
2024/01/01 12:59:39;;;;;;;4.30;2.47;;;;;;;;;;4927483;29;20056;-84
2024/01/01 13:02:05;;;;;;;4.38;2.42;;;;;;;;;;4928106;29;20067;-85
2024/01/01 13:04:32;;;;;;;6.00;2.85;;;;;;;;;;4930361;29;20650;-84
2024/01/01 13:06:58;;;;;;;4.35;2.70;;;;;;;;;;4924722;29;20036;-84
2024/01/01 13:09:24;;;;;;;6.00;2.38;;;;;;;;;;4929548;29;20032;-85
2024/01/01 13:11:50;;;;;;;4.40;2.20;;;;;;;;;;4928510;29;20038;-85
2024/01/01 13:14:16;;;;;;;3.55;2.20;;;;;;;;;;4929568;29;20482;-85
2024/01/01 13:16:42;;;;;;;4.18;2.63;;;;;;;;;;4926683;29;20042;-84
2024/01/01 13:19:07;;;;;;;3.97;2.58;;;;;;;;;;4924784;29;20043;-84
2024/01/01 13:21:34;;;;;;;5.43;3.33;;;;;;;;;;4930037;29;20474;-84
2024/01/01 13:24:00;;;;;;;7.40;3.05;;;;;;;;;;4928848;29;20097;-83
2024/01/01 13:26:28;;;;;;;5.20;2.80;;;;;;;;;;4926616;29;20035;-84
2024/01/01 13:28:54;;;;;;;5.97;2.97;;;;;;;;;;4926416;29;20426;-82
2024/01/01 13:31:20;;;;;;;4.70;2.53;;;;;;;;;;4927885;29;20036;-83
2024/01/01 13:33:46;;;;;;;5.75;2.50;;;;;;;;;;4929657;29;20502;-83
2024/01/01 13:36:12;;;;;;;4.97;2.42;;;;;;;;;;4931247;29;20126;-84
2024/01/01 13:38:38;;;;;;;3.83;2.20;;;;;;;;;;4931205;29;20156;-84
2024/01/01 13:41:04;;;;;;;3.85;2.22;;;;;;;;;;4930007;29;20086;-84
2024/01/01 13:43:29;;;;;;;3.78;2.20;;;;;;;;;;4925650;29;20032;-84
2024/01/01 13:45:55;;;;;;;3.35;2.00;;;;;;;;;;4928066;29;20113;-85
2024/01/01 13:48:20;;;;;;;7.95;2.60;;;;;;;;;;4930476;29;20619;-84
2024/01/01 13:50:46;;;;;;;4.35;2.50;;;;;;;;;;4929154;29;20098;-84
2024/01/01 13:53:12;;;;;;;4.13;2.25;;;;;;;;;;4927591;29;20521;-84
2024/01/01 13:55:38;;;;;;;3.53;2.20;;;;;;;;;;4928700;29;20204;-85
2024/01/01 13:58:07;;;;;;;3.50;2.08;;;;;;;;;;4928354;29;20040;-86
2024/01/01 14:00:36;;;;;;;8.05;2.40;;;;;;;;;;4932795;29;20055;-83
2024/01/01 14:03:01;;;;;;;3.30;2.00;;;;;;;;;;4924220;29;20684;-84
2024/01/01 14:05:27;;;;;;;3.90;2.15;;;;;;;;;;4924404;29;20752;-85
2024/01/01 14:07:53;;;;;;;4.47;2.05;;;;;;;;;;4925375;29;20036;-84
2024/01/01 14:10:19;;;;;;;3.63;2.10;;;;;;;;;;4941558;29;20036;-83
2024/01/01 14:12:48;;;;;;;3.67;2.20;;;;;;;;;;4926956;29;20032;-84
2024/01/01 14:15:17;;;;;;;4.55;2.40;;;;;;;;;;4927356;29;20039;-84
2024/01/01 14:17:43;;;;;;;5.43;2.80;;;;;;;;;;4926105;29;20040;-84
2024/01/01 14:20:09;;;;;;;4.32;2.80;;;;;;;;;;4925728;29;20036;-84
2024/01/01 14:22:35;;;;;;;7.30;2.45;;;;;;;;;;4928707;29;20036;-84
2024/01/01 14:25:01;;;;;;;3.95;2.42;;;;;;;;;;4923825;29;20044;-84
2024/01/01 14:27:26;;;;;;;3.92;2.30;;;;;;;;;;4925697;29;20267;-84
2024/01/01 14:29:52;;;;;;;4.90;3.00;;;;;;;;;;4928057;29;20038;-84
2024/01/01 14:32:17;;;;;;;3.65;2.30;;;;;;;;;;4930395;29;20554;-85
2024/01/01 14:34:43;;;;;;;4.60;2.40;;;;;;;;;;4925813;29;20032;-85
2024/01/01 14:37:10;;;;;;;3.83;2.40;;;;;;;;;;4925303;29;20036;-85
2024/01/01 14:39:36;;;;;;;4.68;3.10;;;;;;;;;;4931133;29;20042;-84